createdAt,value
2023-03-05T00:01:11.176Z,29.33
2023-03-05T00:03:38.017Z,30.25
2023-03-05T00:06:05.387Z,25.08
2023-03-05T00:08:32.704Z,31.00
2023-03-05T00:11:04.939Z,24.95
2023-03-05T00:13:32.806Z,25.67
2023-03-05T00:15:59.309Z,30.95
2023-03-05T00:18:25.773Z,32.50
2023-03-05T00:20:52.594Z,29.98
2023-03-05T00:23:19.467Z,29.15
2023-03-05T00:25:46.601Z,24.70
2023-03-05T00:28:13.349Z,26.70
2023-03-05T00:30:40.420Z,23.60
2023-03-05T00:33:07.497Z,30.90
2023-03-05T00:35:40.843Z,29.08
2023-03-05T00:38:07.483Z,25.42
2023-03-05T00:40:39.133Z,24.80
2023-03-05T00:43:07.061Z,25.13
2023-03-05T00:45:34.038Z,21.55
2023-03-05T00:48:00.709Z,24.58
2023-03-05T00:50:28.690Z,35.25
2023-03-05T00:52:55.590Z,25.55
2023-03-05T00:55:22.086Z,22.40
2023-03-05T00:57:49.002Z,21.55
2023-03-05T01:00:16.280Z,26.27
2023-03-05T01:02:43.190Z,22.85
2023-03-05T01:05:14.093Z,29.17
2023-03-05T01:07:40.906Z,31.83
2023-03-05T01:10:08.305Z,30.73
2023-03-05T01:12:35.187Z,24.88
2023-03-05T01:15:01.755Z,23.52
2023-03-05T01:17:28.201Z,21.45
2023-03-05T01:19:55.033Z,35.75
2023-03-05T01:22:21.443Z,36.03
2023-03-05T01:24:47.958Z,28.05
2023-03-05T01:27:15.435Z,21.25
2023-03-05T01:29:41.849Z,31.83
2023-03-05T01:32:08.621Z,31.38
2023-03-05T01:34:37.989Z,29.55
2023-03-05T01:37:04.556Z,33.25
2023-03-05T01:39:31.068Z,26.83
2023-03-05T01:41:57.940Z,30.95
2023-03-05T01:44:28.348Z,34.90
2023-03-05T01:46:54.822Z,27.48
2023-03-05T01:49:40.724Z,31.75
2023-03-05T01:52:13.896Z,28.52
2023-03-05T01:54:46.922Z,35.22
2023-03-05T01:57:21.417Z,28.25
2023-03-05T01:59:51.429Z,30.67
2023-03-05T02:02:19.560Z,34.50
2023-03-05T02:04:50.758Z,29.83
2023-03-05T02:07:18.443Z,31.17
2023-03-05T02:09:44.895Z,24.13
2023-03-05T02:12:12.920Z,26.42
2023-03-05T02:14:43.154Z,27.52
2023-03-05T02:17:11.109Z,28.00
2023-03-05T02:20:09.231Z,30.25
2023-03-05T02:22:35.691Z,26.48
2023-03-05T02:25:02.108Z,29.98
2023-03-05T02:27:36.033Z,28.90
2023-03-05T02:30:03.059Z,34.30
2023-03-05T02:32:32.467Z,34.38
2023-03-05T02:34:59.277Z,25.77
2023-03-05T02:37:25.738Z,38.33
2023-03-05T02:39:52.155Z,27.88
2023-03-05T02:42:18.902Z,22.38
2023-03-05T02:44:45.304Z,30.02
2023-03-05T02:47:11.729Z,33.63
2023-03-05T02:49:38.699Z,40.13
2023-03-05T02:52:05.443Z,35.10
2023-03-05T02:54:31.903Z,31.73
2023-03-05T02:56:58.350Z,31.17
2023-03-05T02:59:24.772Z,47.67
2023-03-05T03:01:51.402Z,38.33
2023-03-05T03:04:18.552Z,34.35
2023-03-05T03:06:44.951Z,47.38
2023-03-05T03:09:11.347Z,40.67
2023-03-05T03:11:38.091Z,35.22
2023-03-05T03:14:04.534Z,41.83
2023-03-05T03:16:30.992Z,40.88
2023-03-05T03:18:57.872Z,43.80
2023-03-05T03:21:25.484Z,34.88
2023-03-05T03:23:51.936Z,41.30
2023-03-05T03:26:19.726Z,36.40
2023-03-05T03:28:46.147Z,34.30
2023-03-05T03:31:12.693Z,41.60
2023-03-05T03:33:40.031Z,32.53
2023-03-05T03:36:07.172Z,39.35
2023-03-05T03:38:33.645Z,36.33
2023-03-05T03:41:00.262Z,46.72
2023-03-05T03:43:26.729Z,38.28
2023-03-05T03:45:53.168Z,36.45
2023-03-05T03:48:21.947Z,41.65
2023-03-05T03:50:48.352Z,43.13
2023-03-05T03:53:14.881Z,39.85
2023-03-05T03:55:47.046Z,34.05
2023-03-05T03:58:13.572Z,38.88
2023-03-05T04:00:41.498Z,34.85
2023-03-05T04:03:09.206Z,37.25
2023-03-05T04:05:35.629Z,37.22
2023-03-05T04:08:03.405Z,40.45
2023-03-05T04:10:30.442Z,38.42
2023-03-05T04:12:56.879Z,32.58
2023-03-05T04:15:23.364Z,31.13
2023-03-05T04:17:50.256Z,34.38
2023-03-05T04:20:16.982Z,23.35
2023-03-05T04:22:43.438Z,27.50
2023-03-05T04:25:10.926Z,26.00
2023-03-05T04:27:40.472Z,34.63
2023-03-05T04:30:08.817Z,27.92
2023-03-05T04:32:36.130Z,27.38
2023-03-05T04:35:03.289Z,29.55
2023-03-05T04:37:29.692Z,33.17
2023-03-05T04:39:56.824Z,28.55
2023-03-05T04:42:23.302Z,37.15
2023-03-05T04:44:49.959Z,34.75
2023-03-05T04:47:18.002Z,36.13
2023-03-05T04:49:44.739Z,30.55
2023-03-05T04:52:12.611Z,27.58
2023-03-05T04:54:39.596Z,30.80
2023-03-05T04:57:06.530Z,22.33
2023-03-05T04:59:33.061Z,31.73
2023-03-05T05:02:00.065Z,31.15
2023-03-05T05:04:26.650Z,30.83
2023-03-05T05:06:56.101Z,37.22
2023-03-05T05:09:23.954Z,32.95
2023-03-05T05:11:50.403Z,34.03
2023-03-05T05:14:17.840Z,36.25
2023-03-05T05:16:44.709Z,32.75
2023-03-05T05:19:11.714Z,31.40
2023-03-05T05:21:38.271Z,33.80
2023-03-05T05:24:05.340Z,28.30
2023-03-05T05:26:32.334Z,27.73
2023-03-05T05:28:58.765Z,33.53
2023-03-05T05:31:25.215Z,34.08
2023-03-05T05:33:52.157Z,34.85
2023-03-05T05:36:19.409Z,31.42
2023-03-05T05:38:46.009Z,28.67
2023-03-05T05:41:16.039Z,38.30
2023-03-05T05:43:42.525Z,31.08
2023-03-05T05:46:13.291Z,31.58
2023-03-05T05:48:40.634Z,25.30
2023-03-05T05:51:16.269Z,35.97
2023-03-05T05:53:44.471Z,30.05
2023-03-05T05:56:13.571Z,35.47
2023-03-05T05:58:41.418Z,37.67
2023-03-05T06:01:20.781Z,27.40
2023-03-05T06:03:47.532Z,31.92
2023-03-05T06:06:16.904Z,28.77
2023-03-05T06:08:44.048Z,32.22
2023-03-05T06:11:11.038Z,32.17
2023-03-05T06:13:38.039Z,28.45
2023-03-05T06:16:08.383Z,28.30
2023-03-05T06:18:35.429Z,34.15
2023-03-05T06:21:05.338Z,33.92
2023-03-05T06:23:32.974Z,32.60
2023-03-05T06:26:01.673Z,43.63
2023-03-05T06:28:29.392Z,30.23
2023-03-05T06:31:08.478Z,44.90
2023-03-05T06:33:35.976Z,44.13
2023-03-05T06:36:08.014Z,33.63
2023-03-05T06:38:34.892Z,36.40
2023-03-05T06:41:09.142Z,39.90
2023-03-05T06:43:39.035Z,33.35
2023-03-05T06:46:17.865Z,34.33
2023-03-05T06:48:45.774Z,32.65
2023-03-05T06:51:17.610Z,34.65
2023-03-05T06:53:44.979Z,41.65
2023-03-05T06:56:14.269Z,32.33
2023-03-05T06:58:41.168Z,33.92
2023-03-05T07:01:07.715Z,33.70
2023-03-05T07:03:35.980Z,32.50
2023-03-05T07:06:07.389Z,33.05
2023-03-05T07:08:33.913Z,32.33
2023-03-05T07:11:01.471Z,34.75
2023-03-05T07:13:28.702Z,33.55
2023-03-05T07:15:55.915Z,33.22
2023-03-05T07:18:22.788Z,36.50
2023-03-05T07:20:49.194Z,34.45
2023-03-05T07:23:15.643Z,36.65
2023-03-05T07:25:42.540Z,34.58
2023-03-05T07:28:10.647Z,39.88
2023-03-05T07:30:37.152Z,32.70
2023-03-05T07:33:04.056Z,37.72
2023-03-05T07:35:30.561Z,36.67
2023-03-05T07:37:57.001Z,32.08
2023-03-05T07:40:23.961Z,33.42
2023-03-05T07:42:50.362Z,34.97
2023-03-05T07:45:16.790Z,40.28
2023-03-05T07:47:43.604Z,41.70
2023-03-05T07:50:11.409Z,32.28
2023-03-05T07:52:37.922Z,40.78
2023-03-05T07:55:05.220Z,32.60
2023-03-05T07:57:31.682Z,31.13
2023-03-05T07:59:58.054Z,42.22
2023-03-05T08:02:25.003Z,32.28
2023-03-05T08:04:51.460Z,34.50
2023-03-05T08:07:17.951Z,42.72
2023-03-05T08:09:44.911Z,34.17
2023-03-05T08:12:11.420Z,33.80
2023-03-05T08:14:38.065Z,33.15
2023-03-05T08:17:06.013Z,37.13
2023-03-05T08:19:33.493Z,36.00
2023-03-05T08:22:00.007Z,36.92
2023-03-05T08:24:30.125Z,39.25
2023-03-05T08:26:58.023Z,34.13
2023-03-05T08:29:25.987Z,37.15
2023-03-05T08:31:54.131Z,36.55
2023-03-05T08:34:21.290Z,40.28
2023-03-05T08:36:48.114Z,37.80
2023-03-05T08:39:15.353Z,40.88
2023-03-05T08:41:41.926Z,29.17
2023-03-05T08:44:08.755Z,37.60
2023-03-05T08:46:36.635Z,29.73
2023-03-05T08:49:03.167Z,37.97
2023-03-05T08:51:29.569Z,36.38
2023-03-05T08:53:58.955Z,32.00
2023-03-05T08:56:27.499Z,33.03
2023-03-05T08:58:54.146Z,29.13
2023-03-05T09:01:20.966Z,33.65
2023-03-05T09:03:47.478Z,30.35
2023-03-05T09:06:13.928Z,36.67
2023-03-05T09:08:41.177Z,29.83
2023-03-05T09:11:09.280Z,35.92
2023-03-05T09:13:36.312Z,45.35
2023-03-05T09:16:06.863Z,32.40
2023-03-05T09:18:36.454Z,29.02
2023-03-05T09:21:12.695Z,35.00
2023-03-05T09:23:39.894Z,32.42
2023-03-05T09:26:08.142Z,26.05
2023-03-05T09:28:34.990Z,34.10
2023-03-05T09:31:05.519Z,29.60
2023-03-05T09:33:33.267Z,24.85
2023-03-05T09:36:01.665Z,28.27
2023-03-05T09:38:28.901Z,32.20
2023-03-05T09:41:08.093Z,30.88
2023-03-05T09:43:49.800Z,26.60
2023-03-05T09:46:36.403Z,31.05
2023-03-05T09:49:21.147Z,27.05
2023-03-05T09:51:55.936Z,31.80
2023-03-05T09:54:36.127Z,32.83
2023-03-05T09:57:05.227Z,33.45
2023-03-05T09:59:40.117Z,39.75
2023-03-05T10:02:18.266Z,36.60
2023-03-05T10:04:52.060Z,38.95
2023-03-05T10:07:29.163Z,33.95
2023-03-05T10:10:22.876Z,33.55
2023-03-05T10:12:52.957Z,27.48
2023-03-05T10:15:52.176Z,30.17
2023-03-05T10:18:21.635Z,28.00
2023-03-05T10:20:57.165Z,28.90
2023-03-05T10:23:58.739Z,26.02
2023-03-05T10:26:46.836Z,26.85
2023-03-05T10:29:13.171Z,28.60
2023-03-05T10:31:58.502Z,28.52
2023-03-05T10:34:40.119Z,30.48
2023-03-05T10:37:24.729Z,32.75
2023-03-05T10:40:09.827Z,26.38
2023-03-05T10:42:58.467Z,25.50
2023-03-05T10:45:30.855Z,32.78
2023-03-05T10:48:19.143Z,26.08
2023-03-05T10:50:52.254Z,29.58
2023-03-05T10:53:34.237Z,26.80
2023-03-05T10:56:03.888Z,28.13
2023-03-05T10:58:31.010Z,23.50
2023-03-05T11:01:10.575Z,22.50
2023-03-05T11:04:07.217Z,27.02
2023-03-05T11:06:47.878Z,29.08
2023-03-05T11:09:33.111Z,22.10
2023-03-05T11:14:33.948Z,27.60
2023-03-05T11:17:02.309Z,30.27
2023-03-05T11:19:33.980Z,28.13
2023-03-05T11:22:20.643Z,22.75
2023-03-05T11:25:19.144Z,23.45
2023-03-05T11:27:54.564Z,37.95
2023-03-05T11:30:36.697Z,35.13
2023-03-05T11:33:22.612Z,18.80
2023-03-05T11:35:51.926Z,20.13
2023-03-05T11:38:25.521Z,23.17
2023-03-05T11:40:55.286Z,19.67
2023-03-05T11:43:24.226Z,16.08
2023-03-05T11:45:54.361Z,28.60
2023-03-05T11:48:27.010Z,20.48
2023-03-05T11:50:58.586Z,25.73
2023-03-05T11:53:45.693Z,15.10
2023-03-05T11:56:21.432Z,18.77
2023-03-05T11:59:11.865Z,19.73
2023-03-05T12:01:44.993Z,19.65
2023-03-05T12:04:12.438Z,22.63
2023-03-05T12:06:43.658Z,22.73
2023-03-05T12:09:20.434Z,20.00
2023-03-05T12:11:51.442Z,12.98
2023-03-05T12:14:24.965Z,25.35
2023-03-05T12:17:03.696Z,17.23
2023-03-05T12:19:37.887Z,26.40
2023-03-05T12:22:15.037Z,20.23
2023-03-05T12:24:41.781Z,18.58
2023-03-05T12:27:14.632Z,29.17
2023-03-05T12:29:44.586Z,27.52
2023-03-05T12:32:25.437Z,18.15
2023-03-05T12:35:23.575Z,22.90
2023-03-05T12:37:50.101Z,23.88
2023-03-05T12:40:22.473Z,17.25
2023-03-05T12:42:52.169Z,20.42
2023-03-05T12:45:19.581Z,23.42
2023-03-05T12:47:47.427Z,29.58
2023-03-05T12:50:29.653Z,24.73
2023-03-05T12:53:06.931Z,49.05
2023-03-05T12:55:49.979Z,19.02
2023-03-05T12:58:24.671Z,21.52
2023-03-05T13:01:20.803Z,22.02
2023-03-05T13:03:53.177Z,24.58
2023-03-05T13:06:30.197Z,19.52
2023-03-05T13:09:08.795Z,23.10
2023-03-05T13:11:39.331Z,18.17
2023-03-05T13:14:27.579Z,17.98
2023-03-05T13:16:55.526Z,14.25
2023-03-05T13:19:22.693Z,18.30
2023-03-05T13:22:18.454Z,23.88
2023-03-05T13:27:30.109Z,17.45
2023-03-05T13:32:30.376Z,18.00
2023-03-05T13:34:59.063Z,20.27
2023-03-05T13:37:28.933Z,18.00
2023-03-05T13:40:15.873Z,23.20
2023-03-05T13:42:42.486Z,19.52
2023-03-05T13:45:26.724Z,23.95
2023-03-05T13:48:01.760Z,19.52
2023-03-05T13:50:35.874Z,21.30
2023-03-05T13:53:22.364Z,16.65
2023-03-05T13:55:51.066Z,19.35
2023-03-05T13:58:44.252Z,17.60
2023-03-05T14:01:22.807Z,17.63
2023-03-05T14:03:51.465Z,22.42
2023-03-05T14:06:21.671Z,17.73
2023-03-05T14:08:53.410Z,20.38
2023-03-05T14:11:20.385Z,17.10
2023-03-05T14:13:48.582Z,33.95
2023-03-05T14:16:24.199Z,21.65
2023-03-05T14:18:56.920Z,22.63
2023-03-05T14:21:24.695Z,22.80
2023-03-05T14:23:54.770Z,17.10
2023-03-05T14:26:29.457Z,15.15
2023-03-05T14:29:00.362Z,20.15
2023-03-05T14:31:29.223Z,18.95
2023-03-05T14:34:01.868Z,31.67
2023-03-05T14:36:30.358Z,24.55
2023-03-05T14:38:57.190Z,20.05
2023-03-05T14:41:37.783Z,25.05
2023-03-05T14:44:13.449Z,19.35
2023-03-05T14:46:40.483Z,20.60
2023-03-05T14:49:07.102Z,21.60
2023-03-05T14:51:38.092Z,23.70
2023-03-05T14:54:05.802Z,21.90
2023-03-05T14:56:33.394Z,17.73
2023-03-05T14:58:59.858Z,14.32
2023-03-05T15:01:26.792Z,19.95
2023-03-05T15:03:53.277Z,20.67
2023-03-05T15:06:26.450Z,19.55
2023-03-05T15:08:53.274Z,19.42
2023-03-05T15:11:22.539Z,22.27
2023-03-05T15:13:50.376Z,21.35
2023-03-05T15:16:19.005Z,22.25
2023-03-05T15:18:46.386Z,19.65
2023-03-05T15:21:12.914Z,23.25
2023-03-05T15:23:39.485Z,26.15
2023-03-05T15:26:09.497Z,16.98
2023-03-05T15:28:38.708Z,22.48
2023-03-05T15:31:06.119Z,23.45
2023-03-05T15:33:33.643Z,23.02
2023-03-05T15:36:00.177Z,20.35
2023-03-05T15:38:26.649Z,19.75
2023-03-05T15:40:54.580Z,18.08
2023-03-05T15:43:21.096Z,23.42
2023-03-05T15:45:48.405Z,21.27
2023-03-05T15:48:14.885Z,22.30
2023-03-05T15:50:43.582Z,25.95
2023-03-05T15:53:13.076Z,37.78
2023-03-05T15:55:40.594Z,26.60
2023-03-05T15:58:07.520Z,20.42
2023-03-05T16:00:36.766Z,20.85
2023-03-05T16:03:04.001Z,21.95
2023-03-05T16:05:30.600Z,24.15
2023-03-05T16:07:59.132Z,28.55
2023-03-05T16:10:28.754Z,24.88
2023-03-05T16:13:01.741Z,23.80
2023-03-05T16:15:28.833Z,22.42
2023-03-05T16:17:57.830Z,18.20
2023-03-05T16:20:24.321Z,25.08
2023-03-05T16:22:50.771Z,21.25
2023-03-05T16:25:18.250Z,19.98
2023-03-05T16:27:45.195Z,23.15
2023-03-05T16:30:15.010Z,20.25
2023-03-05T16:32:42.295Z,21.55
2023-03-05T16:35:11.832Z,21.23
2023-03-05T16:37:39.352Z,24.17
2023-03-05T16:40:07.395Z,22.50
2023-03-05T16:42:33.934Z,24.88
2023-03-05T16:45:00.420Z,19.52
2023-03-05T16:47:27.665Z,25.63
2023-03-05T16:49:54.063Z,30.10
2023-03-05T16:52:21.062Z,22.08
2023-03-05T16:54:48.545Z,25.30
2023-03-05T16:57:15.104Z,24.52
2023-03-05T16:59:42.378Z,27.42
2023-03-05T17:02:09.182Z,27.83
2023-03-05T17:04:35.820Z,21.60
2023-03-05T17:07:04.486Z,25.23
2023-03-05T17:09:31.144Z,18.10
2023-03-05T17:11:57.668Z,29.17
2023-03-05T17:14:24.531Z,27.15
2023-03-05T17:16:51.058Z,22.20
2023-03-05T17:19:17.680Z,24.40
2023-03-05T17:21:44.550Z,25.80
2023-03-05T17:24:11.430Z,23.48
2023-03-05T17:26:38.004Z,21.90
2023-03-05T17:29:07.297Z,30.60
2023-03-05T17:31:34.322Z,24.50
2023-03-05T17:34:01.009Z,24.63
2023-03-05T17:36:27.443Z,22.73
2023-03-05T17:38:54.342Z,24.35
2023-03-05T17:41:21.878Z,37.85
2023-03-05T17:43:48.469Z,36.88
2023-03-05T17:46:16.520Z,27.58
2023-03-05T17:48:43.089Z,29.98
2023-03-05T17:51:14.297Z,28.58
2023-03-05T17:53:41.326Z,28.25
2023-03-05T17:56:13.093Z,22.48
2023-03-05T17:58:40.540Z,30.02
2023-03-05T18:01:08.502Z,26.35
2023-03-05T18:03:36.359Z,27.15
2023-03-05T18:06:03.741Z,24.83
2023-03-05T18:08:30.684Z,23.33
2023-03-05T18:10:57.236Z,33.13
2023-03-05T18:13:23.709Z,23.10
2023-03-05T18:15:50.471Z,23.83
2023-03-05T18:18:18.129Z,22.25
2023-03-05T18:20:45.547Z,20.80
2023-03-05T18:23:12.348Z,24.98
2023-03-05T18:25:38.780Z,27.10
2023-03-05T18:28:11.418Z,28.48
2023-03-05T18:30:40.438Z,25.77
2023-03-05T18:33:08.036Z,24.83
2023-03-05T18:35:35.285Z,35.08
2023-03-05T18:38:01.988Z,37.97
2023-03-05T18:40:32.528Z,26.52
2023-03-05T18:43:01.448Z,32.50
2023-03-05T18:45:30.120Z,31.45
2023-03-05T18:47:56.681Z,28.77
2023-03-05T18:50:25.838Z,25.35
2023-03-05T18:52:53.021Z,22.45
2023-03-05T18:55:23.303Z,28.20
2023-03-05T18:57:50.516Z,19.60
2023-03-05T19:00:19.123Z,27.55
2023-03-05T19:02:45.588Z,27.90
2023-03-05T19:05:15.175Z,18.02
2023-03-05T19:07:42.334Z,21.70
2023-03-05T19:10:11.065Z,19.23
2023-03-05T19:13:27.639Z,16.00
2023-03-05T19:18:57.418Z,18.60
2023-03-05T19:21:24.804Z,19.80
2023-03-05T19:23:51.183Z,20.20
2023-03-05T19:26:17.875Z,17.77
2023-03-05T19:28:44.417Z,15.68
2023-03-05T19:31:11.265Z,13.93
2023-03-05T19:33:38.281Z,18.60
2023-03-05T19:36:08.459Z,16.77
2023-03-05T19:38:34.851Z,18.10
2023-03-05T19:41:01.825Z,24.52
2023-03-05T19:43:28.304Z,21.35
2023-03-05T19:46:04.772Z,16.63
2023-03-05T19:48:32.645Z,18.42
2023-03-05T19:50:59.264Z,14.82
2023-03-05T19:53:26.720Z,16.13
2023-03-05T19:55:53.134Z,15.40
2023-03-05T19:58:20.120Z,15.98
2023-03-05T20:00:46.734Z,17.33
2023-03-05T20:03:13.256Z,15.65
2023-03-05T20:05:41.849Z,17.33
2023-03-05T20:08:08.616Z,18.15
2023-03-05T20:10:35.067Z,15.05
2023-03-05T20:13:02.335Z,17.77
2023-03-05T20:15:29.966Z,14.43
2023-03-05T20:17:57.815Z,18.75
2023-03-05T20:20:24.930Z,10.52
2023-03-05T20:22:51.787Z,17.40
2023-03-05T20:25:21.099Z,15.38
2023-03-05T20:27:47.595Z,12.82
2023-03-05T20:30:15.550Z,12.98
2023-03-05T20:32:42.295Z,18.67
2023-03-05T20:35:13.751Z,15.88
2023-03-05T20:37:50.371Z,12.00
2023-03-05T20:40:17.435Z,12.13
2023-03-05T20:42:44.141Z,11.02
2023-03-05T20:45:11.410Z,11.80
2023-03-05T20:47:40.856Z,18.85
2023-03-05T20:50:12.411Z,13.52
2023-03-05T20:52:39.093Z,18.30
2023-03-05T20:55:06.770Z,24.40
2023-03-05T20:57:33.632Z,24.10
2023-03-05T21:00:01.002Z,15.32
2023-03-05T21:02:27.555Z,26.35
2023-03-05T21:04:54.007Z,17.38
2023-03-05T21:07:20.837Z,19.30
2023-03-05T21:09:47.272Z,22.60
2023-03-05T21:12:13.840Z,14.93
2023-03-05T21:14:41.135Z,18.42
2023-03-05T21:17:08.768Z,21.33
2023-03-05T21:19:38.049Z,18.40
2023-03-05T21:22:04.980Z,22.10
2023-03-05T21:24:53.818Z,20.27
2023-03-05T21:27:20.262Z,32.30
2023-03-05T21:29:46.638Z,22.17
2023-03-05T21:32:13.515Z,21.95
2023-03-05T21:34:39.912Z,22.23
2023-03-05T21:37:06.303Z,18.80
2023-03-05T21:39:33.114Z,25.05
2023-03-05T21:41:59.641Z,18.15
2023-03-05T21:44:26.756Z,22.10
2023-03-05T21:46:53.649Z,22.30
2023-03-05T21:49:20.273Z,21.27
2023-03-05T21:52:14.414Z,20.60
2023-03-05T21:54:42.083Z,21.55
2023-03-05T21:57:10.679Z,17.48
2023-03-05T21:59:41.898Z,19.23
2023-03-05T22:02:17.381Z,17.25
2023-03-05T22:04:45.331Z,15.45
2023-03-05T22:07:12.116Z,21.10
2023-03-05T22:09:38.550Z,24.70
2023-03-05T22:12:49.077Z,17.75
2023-03-05T22:15:15.548Z,18.05
2023-03-05T22:17:41.950Z,20.63
2023-03-05T22:20:09.455Z,20.92
2023-03-05T22:22:36.462Z,22.42
2023-03-05T22:25:04.644Z,20.33
2023-03-05T22:27:32.080Z,23.15
2023-03-05T22:29:58.644Z,27.80
2023-03-05T22:32:25.201Z,27.13
2023-03-05T22:34:56.523Z,28.33
2023-03-05T22:37:23.009Z,26.73
2023-03-05T22:39:53.984Z,24.30
2023-03-05T22:42:21.193Z,23.63
2023-03-05T22:44:47.733Z,21.75
2023-03-05T22:47:14.145Z,25.15
2023-03-05T22:49:40.882Z,25.17
2023-03-05T22:52:07.315Z,24.38
2023-03-05T22:54:34.006Z,20.90
2023-03-05T22:57:00.398Z,27.80
2023-03-05T22:59:28.574Z,20.13
2023-03-05T23:01:55.390Z,18.02
2023-03-05T23:04:50.125Z,19.75
2023-03-05T23:07:19.419Z,20.45
2023-03-05T23:09:53.628Z,21.75
2023-03-05T23:12:20.556Z,17.27
2023-03-05T23:14:47.028Z,21.25
2023-03-05T23:17:13.942Z,23.13
2023-03-05T23:19:40.345Z,21.60
2023-03-05T23:22:08.564Z,20.00
2023-03-05T23:24:35.683Z,25.20
2023-03-05T23:27:05.267Z,22.25
2023-03-05T23:30:16.735Z,20.98
2023-03-05T23:33:04.706Z,21.45
2023-03-05T23:35:34.731Z,18.88
2023-03-05T23:38:03.022Z,19.63
2023-03-05T23:40:32.356Z,21.35
2023-03-05T23:42:59.488Z,17.67
2023-03-05T23:45:26.386Z,17.13
2023-03-05T23:47:53.037Z,21.08
2023-03-05T23:50:21.502Z,18.17
2023-03-05T23:52:49.160Z,17.17
2023-03-05T23:55:25.604Z,21.88
2023-03-05T23:57:52.355Z,18.00
